createdAt,value
2023-02-01T07:27:00.332Z,3576.5
2023-02-01T07:28:00.313Z,3785.8
2023-02-01T07:29:00.339Z,4023.5
2023-02-01T07:31:00.311Z,4515.4
2023-02-01T07:32:00.305Z,4769.5
2023-02-01T07:33:00.344Z,5023.7
2023-02-01T07:34:00.341Z,5298.1
2023-02-01T07:36:00.318Z,5852.8
2023-02-01T07:37:00.307Z,6133.0
2023-02-01T07:38:00.305Z,6413.2
2023-02-01T07:39:00.553Z,6696.8
2023-02-01T07:40:00.542Z,6980.4
2023-02-01T07:41:00.310Z,7276.5
2023-02-01T07:42:00.312Z,7572.7
2023-02-01T07:43:00.350Z,7868.8
2023-02-01T07:44:00.371Z,8155.1
2023-02-01T07:45:22.281Z,8441.3
2023-02-01T07:46:00.367Z,8733.5
2023-02-01T07:47:00.314Z,9025.7
2023-02-01T07:48:00.330Z,9317.9
2023-02-01T07:49:00.341Z,9664.2
2023-02-01T07:50:00.564Z,10010.5
2023-02-01T07:51:00.314Z,10400.3
2023-02-01T07:52:00.318Z,10790.2
2023-02-01T07:53:00.375Z,11180.1
2023-02-01T07:54:00.342Z,11618.3
2023-02-01T07:56:00.310Z,12323.8
2023-02-01T07:57:00.314Z,12591.1
2023-02-01T07:58:00.574Z,12858.5
2023-02-01T07:59:00.391Z,13034.6
2023-02-01T08:01:00.364Z,13329.5
2023-02-01T08:02:00.371Z,13448.3
2023-02-01T08:03:00.313Z,13567.1
2023-02-01T08:04:00.370Z,13724.9
2023-02-01T08:06:00.329Z,14425.8
2023-02-01T08:07:00.318Z,14969.0
2023-02-01T08:08:00.473Z,15512.2
2023-02-01T08:09:00.365Z,15740.1
2023-02-01T08:10:00.546Z,15968.1
2023-02-01T08:11:00.720Z,17001.1
2023-02-01T08:12:00.315Z,18034.1
2023-02-01T08:13:00.317Z,19067.1
2023-02-01T08:14:05.427Z,20086.5
2023-02-01T08:15:01.101Z,21106.0
2023-02-01T08:16:00.352Z,21866.4
2023-02-01T08:17:00.320Z,22626.8
2023-02-01T08:18:00.317Z,23387.2
2023-02-01T08:19:00.352Z,24350.5
2023-02-01T08:20:00.537Z,25313.9
2023-02-01T08:21:00.324Z,26174.6
2023-02-01T08:22:00.593Z,27035.3
2023-02-01T08:23:00.337Z,27896.1
2023-02-01T08:24:00.357Z,29811.0
2023-02-01T08:26:00.329Z,31726.5
2023-02-01T08:27:00.333Z,31727.1
2023-02-01T08:28:00.320Z,31727.7
2023-02-01T08:29:00.369Z,31248.2
2023-02-01T08:31:00.370Z,30436.3
2023-02-01T08:32:00.399Z,30104.0
2023-02-01T08:33:00.324Z,29771.7
2023-02-01T08:34:00.372Z,29021.3
2023-02-01T08:35:00.810Z,28271.0
2023-02-01T08:36:00.344Z,27188.3
2023-02-01T08:37:00.353Z,26105.7
2023-02-01T08:38:00.374Z,25023.0
2023-02-01T08:39:00.817Z,22867.8
2023-02-01T08:41:00.394Z,19978.3
2023-02-01T08:42:00.440Z,19244.1
2023-02-01T08:43:00.360Z,18509.8
2023-02-01T08:44:00.473Z,17889.6
2023-02-01T08:46:00.592Z,16712.9
2023-02-01T08:47:00.471Z,16156.3
2023-02-01T08:48:00.341Z,15599.8
2023-02-01T08:49:00.753Z,15879.0
2023-02-01T08:51:00.440Z,16342.7
2023-02-01T08:52:03.895Z,16527.3
2023-02-01T08:53:00.329Z,16711.8
2023-02-01T08:54:00.378Z,17368.6
2023-02-01T08:55:01.867Z,18025.4
2023-02-01T08:56:00.332Z,17914.1
2023-02-01T08:57:00.388Z,17802.7
2023-02-01T08:58:00.340Z,17691.4
2023-02-01T08:59:00.656Z,18759.1
2023-02-01T09:00:01.234Z,19826.9
2023-02-01T09:01:00.350Z,21591.0
2023-02-01T09:02:00.403Z,23355.1
2023-02-01T09:03:00.592Z,25119.3
2023-02-01T09:04:00.427Z,25861.1
2023-02-01T09:05:03.150Z,26602.9
2023-02-01T09:06:00.345Z,28562.5
2023-02-01T09:07:00.335Z,30522.2
2023-02-01T09:08:00.331Z,32481.9
2023-02-01T09:09:00.373Z,35182.4
2023-02-01T09:10:00.688Z,37882.9
2023-02-01T09:11:02.820Z,41152.9
2023-02-01T09:12:00.346Z,44422.9
2023-02-01T09:13:00.345Z,47692.9
2023-02-01T09:14:00.370Z,50075.6
2023-02-01T09:16:00.377Z,53259.1
2023-02-01T09:17:00.611Z,54060.0
2023-02-01T09:18:00.362Z,54860.9
2023-02-01T09:19:24.191Z,56995.1
2023-02-01T09:21:00.343Z,60101.9
2023-02-01T09:22:00.389Z,61074.5
2023-02-01T09:23:00.340Z,62047.0
2023-02-01T09:26:00.343Z,60490.9
2023-02-01T09:27:00.369Z,58934.9
2023-02-01T09:28:00.346Z,57378.8
2023-02-01T09:29:00.366Z,54772.3
2023-02-01T09:30:01.434Z,52165.7
2023-02-01T09:31:05.472Z,51442.5
2023-02-01T09:32:03.896Z,50719.2
2023-02-01T09:33:00.343Z,49995.9
2023-02-01T09:34:00.419Z,48177.1
2023-02-01T09:39:00.391Z,45562.3
2023-02-01T09:40:01.649Z,44766.2
2023-02-01T09:41:00.362Z,46322.3
2023-02-01T09:42:00.350Z,47878.3
2023-02-01T09:43:00.341Z,49434.4
2023-02-01T09:44:00.679Z,52176.7
2023-02-01T09:46:00.389Z,54475.8
2023-02-01T09:47:00.344Z,54032.5
2023-02-01T09:48:00.342Z,53589.3
2023-02-01T09:49:00.394Z,53785.5
2023-02-01T09:50:00.652Z,53981.7
2023-02-01T09:51:00.368Z,52590.4
2023-02-01T09:52:00.341Z,51199.1
2023-02-01T09:53:00.345Z,49807.9
2023-02-01T09:54:00.383Z,50086.0
2023-02-01T09:55:02.522Z,50364.1
2023-02-01T10:00:01.259Z,50364.1
2023-02-01T10:01:00.342Z,52602.8
2023-02-01T10:02:00.343Z,54841.5
2023-02-01T10:03:00.358Z,57080.1
2023-02-01T10:04:00.378Z,58702.7
2023-02-01T10:05:16.543Z,60325.3
2023-02-01T10:06:00.347Z,61716.6
2023-02-01T10:07:00.678Z,63107.9
2023-02-01T10:08:00.350Z,64499.1
2023-02-01T10:25:02.162Z,65535.0
2023-02-01T10:30:01.586Z,65535.0
2023-02-01T10:45:01.215Z,65535.0
2023-02-01T11:00:04.055Z,65535.0
2023-02-01T11:15:01.609Z,65535.0
2023-02-01T11:16:00.253Z,65116.4
2023-02-01T11:17:00.188Z,64697.8
2023-02-01T11:18:00.190Z,64279.2
2023-02-01T11:19:00.191Z,62634.3
2023-02-01T11:20:00.856Z,60989.5
2023-02-01T11:21:00.198Z,57151.5
2023-02-01T11:22:00.196Z,53313.6
2023-02-01T11:23:00.188Z,49475.7
2023-02-01T11:24:00.184Z,45477.5
2023-02-01T11:26:00.187Z,37475.5
2023-02-01T11:27:00.297Z,33471.7
2023-02-01T11:28:00.187Z,29467.9
2023-02-01T11:29:00.222Z,25978.4
2023-02-01T11:30:01.449Z,22488.9
2023-02-01T11:31:00.623Z,18956.2
2023-02-01T11:32:00.213Z,15423.5
2023-02-01T11:33:00.192Z,11890.7
2023-02-01T11:34:00.204Z,9652.2
2023-02-01T11:35:02.118Z,7413.7
2023-02-01T11:36:05.187Z,7311.2
2023-02-01T11:37:00.201Z,7208.7
2023-02-01T11:38:00.293Z,7106.3
2023-02-01T11:39:00.190Z,7176.7
2023-02-01T11:40:02.216Z,7247.1
2023-02-01T11:41:00.210Z,7453.6
2023-02-01T11:42:00.216Z,7660.1
2023-02-01T11:43:00.220Z,7866.7
2023-02-01T11:44:00.226Z,7584.8
2023-02-01T11:45:04.635Z,7302.9
2023-02-01T11:46:00.525Z,7400.9
2023-02-01T11:47:00.197Z,7498.8
2023-02-01T11:48:00.312Z,7596.7
2023-02-01T11:49:00.205Z,7605.6
2023-02-01T11:50:07.197Z,7614.5
2023-02-01T11:51:00.202Z,7951.6
2023-02-01T11:52:00.194Z,8288.7
2023-02-01T11:53:00.276Z,8625.9
2023-02-01T11:54:00.214Z,8758.3
2023-02-01T11:56:00.220Z,9198.7
2023-02-01T11:57:00.204Z,9506.5
2023-02-01T11:58:00.193Z,9814.4
2023-02-01T11:59:00.198Z,10307.3
2023-02-01T12:00:01.549Z,10800.1
2023-02-01T12:01:00.227Z,11975.6
2023-02-01T12:02:01.348Z,13151.1
2023-02-01T12:03:00.254Z,14326.5
2023-02-01T12:04:00.225Z,16932.5
2023-02-01T12:05:02.882Z,19538.5
2023-02-01T12:06:00.226Z,23141.8
2023-02-01T12:07:00.198Z,26745.1
2023-02-01T12:08:00.201Z,30348.3
2023-02-01T12:09:00.198Z,34143.7
2023-02-01T12:10:21.336Z,37939.0
2023-02-01T12:11:00.228Z,39428.6
2023-02-01T12:12:00.194Z,40918.2
2023-02-01T12:13:00.192Z,42407.8
2023-02-01T13:00:04.132Z,15463.1
2023-02-01T13:01:00.268Z,18088.9
2023-02-01T13:02:00.327Z,20714.7
2023-02-01T13:03:00.421Z,23340.5
2023-02-01T13:04:00.238Z,26370.1
2023-02-01T13:05:00.589Z,29399.7
2023-02-01T13:06:00.405Z,32515.2
2023-02-01T13:07:00.350Z,35630.7
2023-02-01T13:08:00.354Z,38746.3
2023-02-01T13:09:00.235Z,41765.7
2023-02-01T13:10:01.116Z,44785.1
2023-02-01T13:11:00.235Z,47495.3
2023-02-01T13:12:00.238Z,50205.6
2023-02-01T13:13:00.420Z,52915.9
2023-02-01T13:14:00.239Z,55006.1
2023-02-01T13:15:01.359Z,57096.3
2023-02-01T13:16:00.534Z,58551.3
2023-02-01T13:17:00.387Z,60006.3
2023-02-01T13:18:00.286Z,61461.3
2023-02-01T13:19:00.519Z,62278.8
2023-02-01T13:20:01.419Z,63096.3
2023-02-01T13:21:00.253Z,63453.5
2023-02-01T13:22:00.260Z,63810.7
2023-02-01T13:23:00.411Z,64167.9
2023-02-01T13:24:00.238Z,63266.5
2023-02-01T13:25:02.029Z,62365.1
2023-02-01T13:26:00.240Z,62500.3
2023-02-01T13:27:00.244Z,62635.5
2023-02-01T13:28:00.283Z,62770.7
2023-02-01T13:29:00.329Z,62997.5
2023-02-01T13:30:02.302Z,63224.3
2023-02-01T13:36:00.337Z,63287.8
2023-02-01T13:37:00.249Z,63351.3
2023-02-01T13:38:00.556Z,63414.7
2023-02-01T13:39:00.252Z,64474.9
2023-02-01T13:40:01.891Z,65535.0
2023-02-01T13:41:00.250Z,62384.1
2023-02-01T13:42:00.252Z,59233.1
2023-02-01T13:43:00.299Z,56082.2
2023-02-01T13:44:00.247Z,52364.1
2023-02-01T13:45:01.311Z,48646.1
2023-02-01T13:46:00.261Z,44786.7
2023-02-01T13:47:00.240Z,40927.4
2023-02-01T13:48:00.490Z,37068.1
2023-02-01T13:49:00.262Z,33453.8
2023-02-01T13:51:00.255Z,26944.1
2023-02-01T13:52:00.272Z,24048.7
2023-02-01T13:53:00.318Z,21153.3
2023-02-01T13:54:00.251Z,18603.1
2023-02-01T13:55:01.324Z,16052.8
2023-02-01T13:56:00.249Z,17541.1
2023-02-01T13:57:00.245Z,19029.3
2023-02-01T13:58:00.645Z,20517.6
2023-02-01T13:59:00.247Z,22447.7
2023-02-01T14:00:01.760Z,24377.7
2023-02-01T14:01:00.572Z,26577.5
2023-02-01T14:02:00.249Z,28777.3
2023-02-01T14:03:00.311Z,30977.1
2023-02-01T14:04:00.336Z,32885.4
2023-02-01T14:05:01.678Z,34793.7
2023-02-01T14:06:00.261Z,35761.7
2023-02-01T14:07:00.276Z,36729.8
2023-02-01T14:08:00.304Z,37697.9
2023-02-01T14:09:00.249Z,37843.5
2023-02-01T14:10:02.031Z,37989.2
2023-02-01T14:11:00.267Z,36952.7
2023-02-01T14:12:00.279Z,35916.1
2023-02-01T14:13:00.293Z,34879.6
2023-02-01T14:14:00.252Z,33861.0
2023-02-01T14:15:01.330Z,32842.4
2023-02-01T14:16:00.330Z,32409.3
2023-02-01T14:17:00.255Z,31976.1
2023-02-01T14:18:00.293Z,31543.0
2023-02-01T14:19:00.253Z,30881.9
2023-02-01T14:20:06.125Z,30220.9
2023-02-01T14:21:00.267Z,29763.0
2023-02-01T14:22:00.260Z,29305.1
2023-02-01T14:23:00.295Z,28847.3
2023-02-01T14:24:00.432Z,29072.2
2023-02-01T14:25:01.957Z,29297.1
2023-02-01T14:26:00.263Z,29300.2
2023-02-01T14:27:00.320Z,29303.3
2023-02-01T14:28:00.294Z,29306.3
2023-02-01T14:29:06.995Z,29801.4
2023-02-01T14:30:06.516Z,30296.5
2023-02-01T14:31:00.427Z,30226.3
2023-02-01T14:32:00.355Z,30156.2
2023-02-01T14:33:00.789Z,30086.1
2023-02-01T14:34:00.286Z,30056.4
2023-02-01T14:35:01.445Z,30026.7
2023-02-01T14:36:00.269Z,29865.2
2023-02-01T14:37:00.571Z,29703.7
2023-02-01T14:38:00.284Z,29542.1
2023-02-01T14:39:00.260Z,29062.9
2023-02-01T14:40:01.640Z,28583.6
2023-02-01T14:41:00.303Z,28479.7
2023-02-01T14:42:02.313Z,28375.9
2023-02-01T14:43:00.577Z,28272.0
2023-02-01T14:44:00.257Z,27574.5
2023-02-01T14:46:00.300Z,26099.5
2023-02-01T14:47:00.262Z,25321.9
2023-02-01T14:48:00.285Z,24544.3
2023-02-01T14:49:05.259Z,24266.3
2023-02-01T14:50:00.507Z,23988.3
2023-02-01T14:51:00.256Z,23548.5
2023-02-01T14:52:00.253Z,23108.7
2023-02-01T14:53:00.280Z,22668.9
2023-02-01T14:54:00.255Z,22802.3
2023-02-01T14:55:00.468Z,22935.8
2023-02-01T14:56:00.281Z,23031.4
2023-02-01T14:57:00.262Z,23127.0
2023-02-01T14:58:00.277Z,23222.6
2023-02-01T14:59:00.258Z,23186.5
2023-02-01T15:00:02.659Z,23150.5
2023-02-01T15:01:00.256Z,22996.0
2023-02-01T15:02:00.346Z,22841.5
2023-02-01T15:03:00.316Z,22687.1
2023-02-01T15:04:00.254Z,22301.9
2023-02-01T15:05:00.550Z,21916.8
2023-02-01T15:06:00.254Z,21615.6
2023-02-01T15:07:00.257Z,21314.4
2023-02-01T15:08:00.324Z,21013.2
2023-02-01T15:09:00.254Z,20339.3
2023-02-01T15:10:00.682Z,19665.5
2023-02-01T15:11:00.258Z,19175.9
2023-02-01T15:12:00.285Z,18686.3
2023-02-01T15:13:00.299Z,18196.7
2023-02-01T15:14:00.253Z,18244.9
2023-02-01T15:15:01.359Z,18293.1
2023-02-01T15:16:00.305Z,18168.7
2023-02-01T15:17:00.261Z,18044.3
2023-02-01T15:18:00.383Z,17919.9
2023-02-01T15:19:00.402Z,17446.5
2023-02-01T15:20:08.983Z,16973.1
2023-02-01T15:21:05.857Z,16805.6
2023-02-01T15:22:00.265Z,16638.1
2023-02-01T15:23:00.499Z,16470.7
2023-02-01T15:24:00.257Z,16090.4
2023-02-01T15:25:01.889Z,15710.1
2023-02-01T15:26:00.259Z,15145.9
2023-02-01T15:27:00.280Z,14581.7
2023-02-01T15:28:00.313Z,14017.5
2023-02-01T15:29:00.268Z,13159.2
2023-02-01T15:30:01.886Z,12300.9
2023-02-01T15:31:00.506Z,11642.3
2023-02-01T15:32:00.335Z,10983.8
2023-02-01T15:33:00.316Z,10325.3
2023-02-01T15:34:00.556Z,9952.2
2023-02-01T15:35:00.476Z,9579.1
2023-02-01T15:36:00.276Z,9026.9
2023-02-01T15:37:03.231Z,8474.6
2023-02-01T15:38:00.297Z,7922.3
2023-02-01T15:39:00.270Z,7365.0
2023-02-01T15:40:00.472Z,6807.7
2023-02-01T15:41:00.281Z,6452.6
2023-02-01T15:42:00.286Z,6097.5
2023-02-01T15:43:00.342Z,5742.5
2023-02-01T15:44:00.298Z,5465.0
2023-02-01T15:45:01.515Z,5187.5
2023-02-01T15:46:00.283Z,4935.8
2023-02-01T15:47:00.263Z,4684.1
2023-02-01T15:48:00.543Z,4432.3
2023-02-01T15:49:00.280Z,4174.5
2023-02-01T15:50:00.882Z,3916.7
2023-02-01T15:51:00.268Z,3762.3
2023-02-01T15:52:00.514Z,3607.9
2023-02-01T15:53:00.691Z,3453.5
2023-02-01T15:54:00.263Z,3407.0
2023-02-01T15:55:00.733Z,3360.5
2023-02-01T15:56:00.268Z,3304.3
2023-02-01T15:57:00.278Z,3248.2
2023-02-01T15:58:05.303Z,3192.1
2023-02-01T15:59:00.270Z,3108.5
2023-02-01T16:01:05.292Z,2916.7
2023-02-01T16:02:00.343Z,2808.6
2023-02-01T16:03:00.512Z,2700.5
2023-02-01T16:04:00.295Z,2588.5
2023-02-01T16:05:01.120Z,2476.6
2023-02-01T16:06:00.275Z,2336.4
2023-02-01T16:07:00.275Z,2196.2
2023-02-01T16:08:00.328Z,2056.0
2023-02-01T16:09:00.274Z,1930.1
2023-02-01T16:11:00.288Z,1650.5
2023-02-01T16:12:00.268Z,1496.9
2023-02-01T16:13:00.304Z,1343.3
2023-02-01T16:14:00.298Z,1218.3
2023-02-01T16:15:02.486Z,1093.3
2023-02-01T16:16:00.347Z,979.2
2023-02-01T16:17:05.394Z,865.1
2023-02-01T16:18:00.337Z,750.9
2023-02-01T16:19:00.273Z,669.9
2023-02-01T16:20:01.519Z,588.8
2023-02-01T16:21:00.292Z,529.5
2023-02-01T16:22:00.270Z,470.3
2023-02-01T16:23:00.300Z,411.0
2023-02-01T16:24:00.284Z,358.7
2023-02-01T16:25:00.500Z,306.3
2023-02-01T16:26:00.296Z,265.7
2023-02-01T16:27:00.277Z,225.0
2023-02-01T16:28:00.527Z,184.3
2023-02-01T16:29:00.274Z,159.6
2023-02-01T16:30:01.142Z,134.9
2023-02-01T16:31:00.314Z,119.1
2023-02-01T16:32:00.410Z,103.4
2023-02-01T16:33:00.796Z,87.7
2023-02-01T16:34:00.284Z,76.7
2023-02-01T16:35:01.105Z,65.8
2023-02-01T16:36:00.282Z,58.7
2023-02-01T16:37:00.282Z,51.7
2023-02-01T16:38:00.335Z,44.6
2023-02-01T16:39:00.273Z,37.9
2023-02-01T16:40:02.774Z,31.3
2023-02-01T16:41:00.298Z,26.3
2023-02-01T16:42:01.450Z,21.4
2023-02-01T16:43:01.343Z,16.5
2023-02-01T16:44:00.285Z,13.7
2023-02-01T16:45:01.137Z,11.0
2023-02-01T16:46:00.317Z,9.7
2023-02-01T16:47:05.327Z,8.3
2023-02-01T16:48:00.349Z,7.0
2023-02-01T16:49:00.301Z,6.1
2023-02-01T16:50:06.189Z,5.3
2023-02-01T16:51:00.288Z,4.7
2023-02-01T16:52:00.293Z,4.2
2023-02-01T16:53:00.322Z,3.7
2023-02-01T16:54:00.299Z,3.1
2023-02-01T16:55:00.509Z,2.6
2023-02-01T16:56:00.303Z,2.3
2023-02-01T16:57:00.284Z,1.9
2023-02-01T16:58:00.799Z,1.6
2023-02-01T16:59:00.563Z,1.4
2023-02-01T17:00:24.311Z,1.2
2023-02-01T17:01:00.321Z,1.1
2023-02-01T17:02:00.285Z,0.9
2023-02-01T17:03:00.360Z,0.8
2023-02-01T17:04:00.326Z,0.7
2023-02-01T17:11:01.402Z,0.6
2023-02-01T17:12:00.286Z,0.5
2023-02-01T17:15:02.010Z,0.5
2023-02-01T17:21:00.542Z,0.4
2023-02-01T17:22:00.316Z,0.3
2023-02-01T17:24:00.449Z,0.2
2023-02-01T17:25:01.445Z,0.1
2023-02-01T17:47:05.329Z,0.1
2023-02-01T18:00:05.422Z,0.1
2023-02-01T18:07:01.626Z,0.2
2023-02-01T18:08:00.308Z,0.3
2023-02-01T18:15:01.265Z,0.3
2023-02-01T18:20:01.429Z,0.4
2023-02-01T18:21:00.348Z,0.5
2023-02-01T18:22:00.307Z,0.4
2023-02-01T18:23:00.329Z,0.3
2023-02-01T18:24:00.303Z,0.4
2023-02-01T18:25:08.296Z,0.5
2023-02-01T18:27:00.371Z,0.6
2023-02-01T18:28:00.407Z,0.7
2023-02-01T18:32:00.574Z,0.6
2023-02-01T18:33:00.307Z,0.5
2023-02-01T18:36:00.365Z,0.3
2023-02-01T18:43:01.648Z,0.2
2023-02-01T18:45:01.134Z,0.2
2023-02-01T18:52:00.494Z,0.3
2023-02-01T18:55:00.598Z,0.2
2023-02-01T18:56:02.520Z,0.1
2023-02-01T18:57:01.678Z,0.2
2023-02-01T18:58:00.388Z,0.3
2023-02-01T19:00:01.025Z,0.4
2023-02-01T19:01:00.775Z,0.5
2023-02-01T19:03:00.639Z,0.6
2023-02-01T19:04:07.829Z,0.7
2023-02-01T19:06:00.467Z,0.8
2023-02-01T19:07:01.638Z,0.7
2023-02-01T19:17:00.328Z,0.6
2023-02-01T19:18:00.332Z,0.5
2023-02-01T19:20:01.388Z,0.4
2023-02-01T19:21:00.340Z,0.3
2023-02-01T19:24:00.378Z,0.4
2023-02-01T19:25:01.155Z,0.5
2023-02-01T19:28:00.314Z,0.4
2023-02-01T19:32:00.401Z,0.5
2023-02-01T20:12:00.851Z,0.2
2023-02-01T20:12:59.583Z,0.3
2023-02-01T20:15:00.239Z,0.4
2023-02-01T20:15:59.703Z,0.5
2023-02-01T20:17:59.794Z,0.6
2023-02-01T20:18:59.584Z,0.7
2023-02-01T20:20:59.610Z,0.8
2023-02-01T20:22:00.173Z,0.7
2023-02-01T20:38:00.412Z,0.8
2023-02-01T20:42:01.096Z,0.7
2023-02-01T20:45:01.127Z,0.7
2023-02-01T20:47:00.685Z,0.6
2023-02-01T20:48:00.451Z,0.5
2023-02-01T20:50:01.037Z,0.4
2023-02-01T20:51:00.425Z,0.3
2023-02-01T20:53:01.496Z,0.2
2023-02-01T21:02:00.571Z,0.3
2023-02-01T21:32:00.398Z,0.1
2023-02-01T21:33:00.246Z,0.2
2023-02-01T21:38:00.533Z,0.3
2023-02-01T21:43:00.626Z,0.4
2023-02-01T21:45:00.881Z,0.4
2023-02-01T21:49:04.592Z,0.5
2023-02-01T21:51:00.263Z,0.6
2023-02-01T21:52:00.261Z,0.5
2023-02-01T21:55:00.692Z,0.6
2023-02-01T21:56:00.258Z,0.7
2023-02-01T21:57:00.271Z,0.6
2023-02-01T21:58:00.257Z,0.5
2023-02-01T22:03:00.324Z,0.4
2023-02-01T22:07:01.067Z,0.5
2023-02-01T22:14:01.429Z,0.6
2023-02-01T22:15:00.906Z,0.7
2023-02-01T22:17:00.248Z,0.8
2023-02-01T22:18:00.255Z,0.9
2023-02-01T22:19:00.453Z,0.8
2023-02-01T22:20:00.271Z,0.7
2023-02-01T22:28:20.470Z,0.8
2023-02-01T22:30:00.884Z,0.8
2023-02-01T22:37:00.921Z,0.7
2023-02-01T22:39:00.269Z,0.6
2023-02-01T22:40:00.278Z,0.5
2023-02-01T22:44:05.560Z,0.4
2023-02-01T22:45:00.878Z,0.3
2023-02-01T22:47:00.297Z,0.2
2023-02-01T22:48:00.256Z,0.1
2023-02-01T22:52:00.525Z,0.2
2023-02-01T22:53:00.243Z,0.3
2023-02-01T22:57:00.484Z,0.2
2023-02-01T22:58:00.253Z,0.1
2023-02-01T23:00:01.036Z,0.1
2023-02-01T23:04:00.521Z,0.2
2023-02-01T23:05:00.802Z,0.3
2023-02-01T23:09:00.441Z,0.4
2023-02-01T23:10:00.244Z,0.5
2023-02-01T23:12:00.246Z,0.6
2023-02-01T23:13:00.326Z,0.7
2023-02-01T23:15:01.327Z,0.8
2023-02-01T23:16:00.339Z,0.9
2023-02-01T23:18:00.276Z,1.0
2023-02-01T23:29:00.284Z,0.9
2023-02-01T23:31:00.338Z,0.8
2023-02-01T23:32:00.354Z,0.7
2023-02-01T23:34:00.332Z,0.6
2023-02-01T23:35:00.461Z,0.5
2023-02-01T23:37:00.238Z,0.4
2023-02-01T23:38:00.239Z,0.3
2023-02-01T23:40:00.487Z,0.2
2023-02-01T23:41:00.271Z,0.1
2023-02-01T23:46:00.278Z,0.2
2023-02-01T23:59:00.581Z,0.1
